• Join FlightAware (Why Join?)
  • Login
  • US Flag 
08:59AM EDT


 

Airport Tracker/Info


-or-


 

Live Flight TrackerFlight Track Log ✈ DAL6231 ✈ 17-Apr-2013 ✈ KLGA - CYHZ

Flight Track Log - Related Links

Times and Time Zones

All times are in EDT time to prevent confusion due to time zone crossing. See the DAL6231 flight status page for this flight to view local times or setup timezone preferences in your user account.

Time Position Orientation Groundspeed Altitude Reporting Facility
EDT Latitude Longitude Course Direction KTS MPH feet Rate Location/Type
09:04PM 40.7500 -73.8167 44° Northeast 156 180 2,000  Level New York TRACON
09:05PM 40.8067 -73.7564 39° Northeast 191 220 5,200 2,220 Climbing Boston Center
09:06PM 40.8697 -73.7136 27° Northeast 211 243 7,700 2,580 Climbing Boston Center
09:07PM 40.9206 -73.6322 50° Northeast 248 285 10,400 2,220 Climbing Boston Center
09:08PM 41.0008 -73.5456 39° Northeast 306 352 12,200 1,920 Climbing Boston Center
09:09PM 41.1821 -73.3731 44° Northeast  Level FlightAware Approximate
09:09PM 41.0767 -73.4644 39° Northeast 347 399 14,400  Level Boston Center
09:10PM 41.1483 -73.3636 47° Northeast 365 420 16,600 1,800 Climbing Boston Center
09:11PM 41.2117 -73.2650 49° Northeast 374 430 18,100 1,860 Climbing Boston Center
09:12PM 41.2811 -73.1500 51° Northeast 386 444 20,400 2,220 Climbing Boston Center
09:13PM 41.3506 -73.0347 51° Northeast 397 457 22,500 1,260 Climbing Boston Center
09:14PM 41.4283 -72.9053 51° Northeast 397 457 23,000 900 Climbing Boston Center
09:15PM 41.5036 -72.7811 51° Northeast 408 470 24,400 1,380 Climbing Boston Center
09:16PM 41.5667 -72.6731 52° Northeast 413 475 25,800 1,320 Climbing Boston Center
09:17PM 41.6292 -72.5289 60° Northeast 423 487 27,100 1,080 Climbing Boston Center
09:18PM 41.6625 -72.3622 75° East 439 505 28,000 960 Climbing Boston Center
09:19PM 41.6956 -72.1844 76° East 457 526 29,100 1,260 Climbing Boston Center
09:20PM 41.7431 -72.0006 71° East 476 548 30,600 1,440 Climbing Boston Center
09:21PM 41.8111 -71.8553 58° Northeast 458 527 32,100 1,440 Climbing Boston Center
09:22PM 41.8750 -71.7125 59° Northeast 453 521 33,500 1,260 Climbing Boston Center
09:23PM 41.9406 -71.5719 58° Northeast 446 513 34,700 960 Climbing Boston Center
09:24PM 42.0125 -71.4397 54° Northeast 440 506 35,500 780 Climbing Boston Center
09:25PM 42.0736 -71.2989 60° Northeast 440 506 36,400 720 Climbing Boston Center
09:26PM 42.1389 -71.1550 59° Northeast 440 506 37,000 300 Climbing Boston Center
09:27PM 42.2058 -71.0106 58° Northeast 435 501 37,000  Level Boston Center
09:28PM 42.2686 -70.8717 59° Northeast 435 501 37,000  Level Boston Center
09:29PM 42.3311 -70.7242 60° Northeast 435 501 37,000  Level Boston Center
09:30PM 42.3936 -70.5847 59° Northeast 435 501 37,000  Level Boston Center
09:31PM 42.4558 -70.4422 59° Northeast 435 501 37,000  Level Boston Center
09:32PM 42.5200 -70.2992 59° Northeast 435 501 37,000  Level Boston Center
09:33PM 42.5817 -70.1561 60° Northeast 435 501 37,000  Level Boston Center
09:34PM 42.6414 -70.0156 60° Northeast 435 501 37,000  Level Boston Center
09:35PM 42.7050 -69.8717 59° Northeast 435 501 37,000  Level Boston Center
09:36PM 42.7703 -69.7303 58° Northeast 435 501 37,000  Level Boston Center
09:37PM 42.8314 -69.5861 60° Northeast 435 501 37,000  Level Boston Center
09:38PM 42.8864 -69.4561 60° Northeast 435 501 37,000  Level Boston Center
09:39PM 42.9472 -69.3142 60° Northeast 435 501 37,000  Level Boston Center
09:40PM 43.0278 -69.2047 45° Northeast 427 491 37,000  Level Boston Center
09:41PM 43.1250 -69.1058 37° Northeast 402 463 37,000  Level Boston Center
09:42PM 43.2097 -69.0186 37° Northeast 392 451 37,000  Level Boston Center
09:42PM 43.2000 -69.0000 126° Southeast 400 460 37,000  Level Moncton Center
09:43PM 43.2833 -68.9167 36° Northeast 390 449 37,000  Level Moncton Center
09:44PM 43.3833 -68.8167 36° Northeast 390 449 37,000  Level Moncton Center
09:45PM 43.4667 -68.7333 36° Northeast 390 449 37,000  Level Moncton Center
09:46PM 43.5500 -68.6333 41° Northeast 390 449 37,000  Level Moncton Center
09:47PM 43.6392 -68.5581 31° Northeast 382 440 37,000  Level Boston Center
09:48PM 43.7258 -68.4692 37° Northeast 382 440 37,000  Level Boston Center
09:49PM 43.8100 -68.3742 39° Northeast 382 440 37,000  Level Boston Center
09:50PM 43.8983 -68.2817 37° Northeast 382 440 37,000  Level Boston Center
09:51PM 43.9825 -68.1836 40° Northeast 382 440 37,000  Level Boston Center
09:52PM 44.0686 -68.0908 38° Northeast 382 440 37,000  Level Boston Center
09:52PM 44.0833 -68.0667 50° Northeast 390 449 37,000  Level Moncton Center
09:53PM 44.1547 -67.9975 35° Northeast 382 440 37,000  Level Boston Center
09:54PM 44.2406 -67.9042 38° Northeast 382 440 37,000  Level Boston Center
09:55PM 44.3244 -67.8106 39° Northeast 382 440 37,000  Level Boston Center
09:56PM 44.4167 -67.7000 41° Northeast 390 449 37,000  Level Moncton Center
09:57PM 44.4833 -67.6167 42° Northeast 390 449 37,000 -420 Level Moncton Center
09:58PM 44.5833 -67.4667 47° Northeast 400 460 36,200 -1,020 Descending Moncton Center
09:59PM 44.6256 -67.3869 53° Northeast 395 455 35,300 -1,380 Descending Boston Center
10:00PM 44.6439 -67.1869 83° East 435 501 33,800 -1,620 Descending Boston Center
10:01PM 44.6500 -66.9333 88° East 500 575 31,700 -1,620 Descending Moncton Center
10:02PM 44.6667 -66.7167 84° East 500 575 30,200 -1,560 Descending Moncton Center
10:03PM 44.6833 -66.5333 83° East 490 564 28,600 -1,680 Descending Moncton Center
10:04PM 44.6833 -66.3500 90° East 470 541 26,900 -1,560 Descending Moncton Center
10:05PM 44.7000 -66.1833 82° East 450 518 25,500 -1,500 Descending Moncton Center
10:06PM 44.7333 -66.0000 76° East 460 529 24,000 -1,500 Descending Moncton Center
10:07PM 44.7333 -65.8167 90° East 470 541 22,500 -1,500 Descending Moncton Center
10:08PM 44.7500 -65.6500 82° East 470 541 21,000 -1,560 Descending Moncton Center
10:09PM 44.7500 -65.4500 90° East 440 506 19,400 -1,500 Descending Moncton Center
10:10PM 44.7667 -65.3000 81° East 430 495 18,000 -1,320 Descending Moncton Center
10:11PM 44.7667 -65.1333 90° East 420 483 16,800 -1,440 Descending Moncton Center
10:12PM 44.7833 -64.9667 82° East 420 483 15,200 -1,500 Descending Moncton Center
10:13PM 44.7833 -64.8000 90° East 420 483 13,800 -1,500 Descending Moncton Center
10:14PM 44.7833 -64.6500 90° East 400 460 12,200 -1,500 Descending Moncton Center
10:15PM 44.7667 -64.5167 100° East 350 403 10,800 -1,500 Descending Moncton Center
10:16PM 44.7500 -64.4000 101° East 320 368 9,200 -1,500 Descending Moncton Center
10:17PM 44.7500 -64.2833 90° East 310 357 7,800 -1,260 Descending Moncton Center
10:18PM 44.7333 -64.1667 101° East 290 334 6,700 -1,200 Descending Moncton Center
10:19PM 44.7333 -64.0667 90° East 260 299 5,500 -1,200 Descending Moncton Center
10:20PM 44.7167 -63.9667 103° East 250 288 4,400 -1,200 Descending Moncton Center
10:21PM 44.7167 -63.8833 90° East 250 288 3,200 -1,200 Descending Moncton Center
10:22PM 44.7167 -63.7833 90° East 240 276 2,100 -600 Descending Moncton Center
10:23PM 44.7333 -63.7167 71° East 200 230 2,100 -60 Level Moncton Center
10:24PM 44.7333 -63.6500 90° East 160 184 2,000  Descending Moncton Center
10:25PM 44.7667 -63.6000 47° Northeast 150 173 2,100 -60 Climbing Moncton Center
10:26PM 44.7833 -63.5667 55° Northeast 130 150 1,900 -420 Descending Moncton Center
10:27PM 44.8167 -63.5500 20° North 110 127 1,300 -600 Descending Moncton Center
10:28PM 44.8500 -63.5167 35° Northeast 120 138 800 -540 Descending Moncton Center